メインページ
METAR-TAF:

METAR-TAF

空港 :

ジュネーヴ空港

ジュネーヴ, スイス

緯度: 46-15N, 経度: 006-08E, 海抜: 420m

現時点の気象観測

当レポートは30分前の10:20(UTC)に作成
変向風 3kt
気温 19°C
湿度 60%
気圧 1014 hPa
視程10km以上
高度3000ftの雲はほとんどない

METAR: LSGG 211020Z VRB03KT 9999 FEW030 19/11 Q1014 NOSIG

時間: 12:50 (10:50 UTC)

予報

当レポートは2時間25分前の08:25(UTC)に作成
予報は21日の 09時(UTC)から 22日の 15時(UTC)まで有効
変向風 3kt
視程10km以上
高度9000ftの雲はほとんどない
高度12000ftの千切れ雲あり
確率 30% :
21日の 23時(UTC)から 22日の 01時(UTC)まで一時的に
高度3000ftの雲は散在している, 積乱雲.
激しい雷雨, 雨
確率 40% :
22日の 11時(UTC)から 22日の 13時(UTC)まで一時的に
高度4000ftの雲は散在している, 積乱雲.
高度5000ftの千切れ雲あり
激しい雷雨

TAF: LSGG 210825Z 2109/2215 VRB03KT 9999 FEW090 BKN120 TX22/2115Z TN12/2205Z TX21/2215Z PROB30 TEMPO 2123/2201 TSRA SCT030CB PROB40 TEMPO 2211/2213 TS SCT040CB BKN050

4,000以上の空港の気象観測と天気予報(METAR報とTAF報)

利用可能な観測所は地図上に黄色い丸と赤い丸で示す。

丸の上にカーソルを重ねると観測所名を参照できる。

次にクリックすると気象観測と天気予報を参照できる。

マップの切り替え:黒色「×」印の緑ボタンをクリックして拡大、「-」印の緑ボタンをクリックして縮小、緑色の三角印をクリックして隣りの地図に切り替え


METAR-TAF: